Time;durP1;ratioP1;P1;durP2;ratioP2;P2;SDS_P1;SDS_P2;PMS_P1;PMS_P2;Temp;Humidity;BMP_temperature;BMP_pressure;BME280_temperature;BME280_humidity;BME280_pressure;Samples;Min_cycle;Max_cycle;Signal;HPM_P1;HPM_P2
2022/04/14 00:00:27;;;;;;;;;25.50;22.25;;;;;-142.59;100.00;56100.38;5112961;27;49677;-71
2022/04/14 00:02:53;;;;;;;;;23.50;23.50;;;;;-142.59;100.00;56100.38;5112987;27;50040;-70
2022/04/14 00:05:19;;;;;;;;;24.50;22.00;;;;;-142.59;100.00;56100.38;5112533;27;49897;-69
2022/04/14 00:07:44;;;;;;;;;27.25;25.25;;;;;-142.59;100.00;56100.38;5112418;27;49690;-69
2022/04/14 00:10:11;;;;;;;;;31.00;25.50;;;;;-142.59;100.00;56100.38;5112840;27;49884;-71
2022/04/14 00:12:36;;;;;;;;;26.00;26.00;;;;;-142.59;100.00;56100.38;5112611;27;49973;-70
2022/04/14 00:15:04;;;;;;;;;25.50;22.50;;;;;-142.59;100.00;56100.38;5112445;27;49722;-70
2022/04/14 00:17:32;;;;;;;;;22.00;20.25;;;;;-142.59;100.00;56100.38;5112701;27;49795;-70
2022/04/14 00:19:57;;;;;;;;;25.25;23.75;;;;;-142.59;100.00;56100.38;5112543;27;50088;-70
2022/04/14 00:22:23;;;;;;;;;25.25;24.25;;;;;-142.59;100.00;56100.38;5112304;27;49814;-71
2022/04/14 00:24:48;;;;;;;;;23.75;23.00;;;;;-142.59;100.00;56100.38;5112161;27;50232;-70
2022/04/14 00:27:17;;;;;;;;;21.50;20.75;;;;;-142.59;100.00;56100.38;5112027;27;54768;-71
2022/04/14 00:29:43;;;;;;;;;21.25;20.75;;;;;-142.59;100.00;56100.38;5112343;27;49871;-71
2022/04/14 00:32:08;;;;;;;;;21.00;20.50;;;;;-142.59;100.00;56100.38;5112539;27;50027;-69
2022/04/14 00:34:34;;;;;;;;;21.00;20.50;;;;;-142.59;100.00;56100.38;5112007;27;49649;-69
2022/04/14 00:36:59;;;;;;;;;23.00;20.75;;;;;-142.59;100.00;56100.38;5111958;27;49668;-70
2022/04/14 00:39:24;;;;;;;;;23.50;22.75;;;;;-142.59;100.00;56100.38;5092089;27;53303;-70
2022/04/14 00:41:49;;;;;;;;;30.00;25.75;;;;;-142.59;100.00;56100.38;5091948;27;51300;-71
2022/04/14 00:44:15;;;;;;;;;26.00;24.25;;;;;-142.59;100.00;56100.38;5091810;27;50563;-70
2022/04/14 00:46:40;;;;;;;;;23.75;23.75;;;;;-142.59;100.00;56100.38;5092243;27;49879;-70
2022/04/14 00:49:06;;;;;;;;;25.75;22.50;;;;;-142.59;100.00;56100.38;5092530;27;49932;-71
2022/04/14 00:51:31;;;;;;;;;27.50;26.00;;;;;-142.59;100.00;56100.38;5092374;27;49980;-71
2022/04/14 00:53:56;;;;;;;;;31.75;30.75;;;;;-142.59;100.00;56100.38;5092159;27;49922;-70
2022/04/14 00:56:22;;;;;;;;;30.00;24.75;;;;;-142.59;100.00;56100.38;5092063;27;49973;-71
2022/04/14 00:58:48;;;;;;;;;27.25;27.00;;;;;-142.59;100.00;56100.38;5091834;27;49826;-67
2022/04/14 01:01:13;;;;;;;;;22.50;22.50;;;;;-142.59;100.00;56100.38;5092234;27;49783;-70
2022/04/14 01:03:39;;;;;;;;;28.50;27.00;;;;;-142.59;100.00;56100.38;5091687;27;49699;-71
2022/04/14 01:06:04;;;;;;;;;24.75;24.75;;;;;-142.59;100.00;56100.38;5091993;27;49871;-71
2022/04/14 01:08:32;;;;;;;;;27.25;24.50;;;;;-142.59;100.00;56100.38;5092323;27;50125;-71
2022/04/14 01:10:58;;;;;;;;;26.25;25.00;;;;;-142.59;100.00;56100.38;5092193;27;49620;-70
2022/04/14 01:13:24;;;;;;;;;31.25;26.50;;;;;-142.59;100.00;56100.38;5091553;27;49671;-71
2022/04/14 01:15:49;;;;;;;;;30.00;26.25;;;;;-142.59;100.00;56100.38;5091812;27;49864;-70
2022/04/14 01:18:15;;;;;;;;;29.25;29.25;;;;;-142.59;100.00;56100.38;5091716;27;49822;-68
2022/04/14 01:20:42;;;;;;;;;31.75;30.00;;;;;-142.59;100.00;56100.38;5091882;27;49674;-71
2022/04/14 01:23:10;;;;;;;;;23.50;22.00;;;;;-142.59;100.00;56100.38;5091528;27;51805;-70
2022/04/14 01:25:36;;;;;;;;;29.50;26.25;;;;;-142.59;100.00;56100.38;5091842;27;49712;-70
2022/04/14 01:28:03;;;;;;;;;30.50;28.50;;;;;-142.59;100.00;56100.38;5091742;27;50013;-70
2022/04/14 01:30:29;;;;;;;;;25.25;24.50;;;;;-142.59;100.00;56100.38;5091993;27;49801;-70
2022/04/14 01:32:55;;;;;;;;;29.50;26.00;;;;;-142.59;100.00;56100.38;5091515;27;50425;-71
2022/04/14 01:35:22;;;;;;;;;29.00;27.25;;;;;-142.59;100.00;56100.38;5091309;27;50338;-70
2022/04/14 01:37:47;;;;;;;;;25.50;22.25;;;;;-142.59;100.00;56100.38;5091484;27;49870;-70
2022/04/14 01:40:13;;;;;;;;;24.75;21.25;;;;;-142.59;100.00;56100.38;5091519;27;49763;-66
2022/04/14 01:42:38;;;;;;;;;26.25;26.00;;;;;-142.59;100.00;56100.38;5091059;27;50660;-69
2022/04/14 01:45:04;;;;;;;;;23.50;23.50;;;;;-142.59;100.00;56100.38;5091460;27;49682;-66
2022/04/14 01:47:30;;;;;;;;;25.75;25.75;;;;;-142.59;100.00;56100.38;5092643;27;49940;-66
2022/04/14 01:49:55;;;;;;;;;25.50;25.25;;;;;-142.59;100.00;56100.38;5094833;27;51469;-66
2022/04/14 01:52:20;;;;;;;;;31.75;23.00;;;;;-142.59;100.00;56100.38;5094944;27;50519;-66
2022/04/14 01:54:46;;;;;;;;;23.50;20.50;;;;;-142.59;100.00;56100.38;5095016;27;49690;-66
2022/04/14 01:57:11;;;;;;;;;24.75;23.75;;;;;-142.59;100.00;56100.38;5094941;27;49745;-66
2022/04/14 01:59:36;;;;;;;;;22.00;20.75;;;;;-142.59;100.00;56100.38;5094938;27;50021;-66
2022/04/14 02:02:03;;;;;;;;;21.00;21.00;;;;;-142.59;100.00;56100.38;5094689;27;53068;-67
2022/04/14 02:04:28;;;;;;;;;26.00;23.00;;;;;-142.59;100.00;56100.38;5104451;27;49793;-70
2022/04/14 02:06:54;;;;;;;;;23.50;22.00;;;;;-142.59;100.00;56100.38;5114769;27;50073;-70
2022/04/14 02:09:19;;;;;;;;;15.50;15.50;;;;;-142.59;100.00;56100.38;5114876;27;49799;-70
2022/04/14 02:11:45;;;;;;;;;20.00;19.25;;;;;-142.59;100.00;56100.38;5113936;27;59821;-70
2022/04/14 02:14:10;;;;;;;;;22.75;21.00;;;;;-142.59;100.00;56100.38;5114166;27;49989;-71
2022/04/14 02:16:35;;;;;;;;;18.25;17.75;;;;;-142.59;100.00;56100.38;5114584;27;49865;-70
2022/04/14 02:19:00;;;;;;;;;21.25;21.00;;;;;-142.59;100.00;56100.38;5114331;27;49660;-71
2022/04/14 02:21:26;;;;;;;;;25.50;21.50;;;;;-142.59;100.00;56100.38;5114521;27;49942;-70
2022/04/14 02:23:51;;;;;;;;;18.00;16.50;;;;;-142.59;100.00;56100.38;5114590;27;49678;-70
2022/04/14 02:26:17;;;;;;;;;22.00;21.00;;;;;-142.59;100.00;56100.38;5114424;27;50321;-70
2022/04/14 02:28:42;;;;;;;;;20.25;20.25;;;;;-142.59;100.00;56100.38;5114305;27;49703;-67
2022/04/14 02:31:07;;;;;;;;;19.25;19.25;;;;;-142.59;100.00;56100.38;5114030;27;50360;-67
2022/04/14 02:33:33;;;;;;;;;20.50;18.75;;;;;-142.59;100.00;56100.38;5114023;27;49823;-67
2022/04/14 02:35:58;;;;;;;;;20.00;19.50;;;;;-142.59;100.00;56100.38;5129288;27;49780;-67
2022/04/14 02:38:23;;;;;;;;;20.75;20.00;;;;;-142.59;100.00;56100.38;5114448;27;49783;-66
2022/04/14 02:40:49;;;;;;;;;25.25;25.25;;;;;-142.59;100.00;56100.38;5114015;27;49724;-66
2022/04/14 02:43:14;;;;;;;;;24.25;23.00;;;;;-142.59;100.00;56100.38;5095465;27;50023;-66
2022/04/14 02:45:39;;;;;;;;;21.00;20.00;;;;;-142.59;100.00;56100.38;5109688;27;49750;-66
2022/04/14 02:48:05;;;;;;;;;21.00;21.00;;;;;-142.59;100.00;56100.38;5097686;27;50249;-66
2022/04/14 02:50:30;;;;;;;;;22.25;22.25;;;;;-142.59;100.00;56100.38;5096729;27;50475;-66
2022/04/14 02:52:55;;;;;;;;;22.50;15.25;;;;;-142.59;100.00;56100.38;5113992;27;49880;-66
2022/04/14 02:55:21;;;;;;;;;24.25;20.75;;;;;-142.59;100.00;56100.38;5105498;27;49954;-66
2022/04/14 02:57:48;;;;;;;;;20.75;19.25;;;;;-142.59;100.00;56100.38;5093819;27;49738;-69
2022/04/14 03:00:14;;;;;;;;;24.50;22.00;;;;;-142.59;100.00;56100.38;5093997;27;50596;-65
2022/04/14 03:02:40;;;;;;;;;21.25;21.25;;;;;-142.59;100.00;56100.38;5093909;27;49872;-66
2022/04/14 03:05:07;;;;;;;;;24.25;24.00;;;;;-142.59;100.00;56100.38;5093949;27;49845;-69
2022/04/14 03:07:32;;;;;;;;;24.00;24.00;;;;;-142.59;100.00;56100.38;5096346;27;49880;-65
2022/04/14 03:09:58;;;;;;;;;27.50;27.50;;;;;-142.59;100.00;56100.38;5094712;27;50309;-65
2022/04/14 03:12:23;;;;;;;;;25.25;22.75;;;;;-142.59;100.00;56100.38;5093604;27;49651;-66
2022/04/14 03:14:49;;;;;;;;;27.50;22.25;;;;;-142.59;100.00;56100.38;5093873;27;49831;-65
2022/04/14 03:17:15;;;;;;;;;26.75;24.00;;;;;-142.59;100.00;56100.38;5093965;27;49664;-70
2022/04/14 03:19:41;;;;;;;;;25.00;24.75;;;;;-142.59;100.00;56100.38;5093565;27;49851;-65
2022/04/14 03:22:06;;;;;;;;;24.00;23.00;;;;;-142.59;100.00;56100.38;5093541;27;49747;-68
2022/04/14 03:24:32;;;;;;;;;25.00;25.00;;;;;-142.59;100.00;56100.38;5093633;27;49806;-66
2022/04/14 03:26:57;;;;;;;;;26.00;23.50;;;;;-142.59;100.00;56100.38;5093727;27;49902;-65
2022/04/14 03:29:23;;;;;;;;;24.00;22.50;;;;;-142.59;100.00;56100.38;5093053;27;50543;-66
2022/04/14 03:31:48;;;;;;;;;27.25;26.25;;;;;-142.59;100.00;56100.38;5093636;27;49887;-70
2022/04/14 03:34:13;;;;;;;;;26.25;24.75;;;;;-142.59;100.00;56100.38;5096923;27;49682;-65
2022/04/14 03:36:38;;;;;;;;;24.00;22.25;;;;;-142.59;100.00;56100.38;5104351;27;49777;-65
2022/04/14 03:39:04;;;;;;;;;33.00;29.50;;;;;-142.59;100.00;56100.38;5093235;27;50353;-66
2022/04/14 03:41:29;;;;;;;;;29.50;22.50;;;;;-142.59;100.00;56100.38;5093202;27;49717;-66
2022/04/14 03:43:55;;;;;;;;;25.50;22.00;;;;;-142.59;100.00;56100.38;5105199;27;49749;-66
2022/04/14 03:46:20;;;;;;;;;23.50;23.25;;;;;-142.59;100.00;56100.38;5093274;27;49862;-65
2022/04/14 03:48:46;;;;;;;;;31.50;26.50;;;;;-142.59;100.00;56100.38;5093032;27;51148;-65
2022/04/14 03:51:15;;;;;;;;;30.00;25.25;;;;;-142.59;100.00;56100.38;5096523;27;49930;-65
2022/04/14 03:53:41;;;;;;;;;29.75;26.00;;;;;-142.59;100.00;56100.38;5093472;27;50080;-65
2022/04/14 03:56:07;;;;;;;;;27.25;27.25;;;;;-142.59;100.00;56100.38;5098859;27;49748;-66
2022/04/14 03:58:32;;;;;;;;;31.50;30.00;;;;;-142.59;100.00;56100.38;5099946;27;49715;-65
2022/04/14 04:00:58;;;;;;;;;33.75;30.50;;;;;-142.59;100.00;56100.38;5095593;27;49801;-65
2022/04/14 04:03:23;;;;;;;;;29.50;29.00;;;;;-142.59;100.00;56100.38;5101590;27;50051;-66
2022/04/14 04:05:48;;;;;;;;;19.50;17.50;;;;;-142.59;100.00;56100.38;5093861;27;49806;-66
2022/04/14 04:08:14;;;;;;;;;36.25;33.50;;;;;-142.59;100.00;56100.38;5092856;27;49721;-65
2022/04/14 04:10:39;;;;;;;;;31.75;27.00;;;;;-142.59;100.00;56100.38;5092126;27;49659;-65
2022/04/14 04:13:05;;;;;;;;;29.00;27.25;;;;;-142.59;100.00;56100.38;5093007;27;49916;-67
2022/04/14 04:15:30;;;;;;;;;22.75;20.75;;;;;-142.59;100.00;56100.38;5092705;27;50059;-66
2022/04/14 04:17:56;;;;;;;;;24.50;22.25;;;;;-142.59;100.00;56100.38;5092347;27;51329;-66
2022/04/14 04:20:21;;;;;;;;;35.00;34.00;;;;;-142.59;100.00;56100.38;5095840;27;49802;-65
2022/04/14 04:22:47;;;;;;;;;30.00;27.75;;;;;-142.59;100.00;56100.38;5092706;27;50084;-74
2022/04/14 04:25:12;;;;;;;;;29.75;28.25;;;;;-142.59;100.00;56100.38;5093415;27;50149;-65
2022/04/14 04:27:38;;;;;;;;;34.25;33.50;;;;;-142.59;100.00;56100.38;5098818;27;50396;-66
2022/04/14 04:30:05;;;;;;;;;35.75;29.75;;;;;-142.59;100.00;56100.38;5101956;27;49770;-64
2022/04/14 04:32:33;;;;;;;;;31.25;31.25;;;;;-142.59;100.00;56100.38;5093034;27;49884;-64
2022/04/14 04:35:03;;;;;;;;;30.25;28.50;;;;;-142.59;100.00;56100.38;5095516;27;49698;-64
2022/04/14 04:37:29;;;;;;;;;30.25;29.75;;;;;-142.59;100.00;56100.38;5098850;27;50053;-64
2022/04/14 04:39:54;;;;;;;;;32.50;30.50;;;;;-142.59;100.00;56100.38;5095550;27;49858;-63
2022/04/14 04:42:20;;;;;;;;;31.50;29.00;;;;;-142.59;100.00;56100.38;5104392;27;49706;-65
2022/04/14 04:44:45;;;;;;;;;31.25;28.25;;;;;-142.59;100.00;56100.38;5095120;27;49787;-66
2022/04/14 04:47:10;;;;;;;;;31.25;27.25;;;;;-142.59;100.00;56100.38;5094612;27;50326;-65
2022/04/14 04:49:36;;;;;;;;;23.25;23.25;;;;;-142.59;100.00;56100.38;5092132;27;49908;-66
2022/04/14 04:52:01;;;;;;;;;36.25;32.50;;;;;-142.59;100.00;56100.38;5092309;27;51092;-65
2022/04/14 04:54:27;;;;;;;;;30.50;29.00;;;;;-142.59;100.00;56100.38;5096566;27;49514;-69
2022/04/14 04:56:52;;;;;;;;;30.75;29.50;;;;;-142.59;100.00;56100.38;5100469;27;50031;-70
2022/04/14 04:59:17;;;;;;;;;34.50;27.25;;;;;-142.59;100.00;56100.38;5091805;27;49770;-68
2022/04/14 05:01:43;;;;;;;;;27.50;26.00;;;;;-142.59;100.00;56100.38;5095813;27;50837;-67
2022/04/14 05:04:11;;;;;;;;;25.00;24.75;;;;;-142.59;100.00;56100.38;5092144;27;49876;-66
2022/04/14 05:06:39;;;;;;;;;30.00;28.75;;;;;-142.59;100.00;56100.38;5092108;27;50538;-67
2022/04/14 05:09:05;;;;;;;;;30.50;30.00;;;;;-142.59;100.00;56100.38;5091871;27;49598;-69
2022/04/14 05:11:30;;;;;;;;;28.25;28.25;;;;;-142.59;100.00;56100.38;5091593;27;49899;-67
2022/04/14 05:13:56;;;;;;;;;26.75;25.75;;;;;-142.59;100.00;56100.38;5091583;27;49629;-68
2022/04/14 05:16:21;;;;;;;;;27.25;27.00;;;;;-142.59;100.00;56100.38;5091703;27;49667;-69
2022/04/14 05:18:47;;;;;;;;;29.75;27.50;;;;;-142.59;100.00;56100.38;5091906;27;49838;-67
2022/04/14 05:21:13;;;;;;;;;29.75;27.00;;;;;-142.59;100.00;56100.38;5092139;27;49640;-68
2022/04/14 05:23:38;;;;;;;;;28.50;28.50;;;;;-142.59;100.00;56100.38;5091817;27;49572;-67
2022/04/14 05:26:03;;;;;;;;;25.50;23.75;;;;;-142.59;100.00;56100.38;5091487;27;49794;-66
2022/04/14 05:28:29;;;;;;;;;32.75;30.00;;;;;-142.59;100.00;56100.38;5091619;27;49749;-68
2022/04/14 05:30:54;;;;;;;;;29.00;27.50;;;;;-142.59;100.00;56100.38;5091556;27;49766;-68
2022/04/14 05:33:19;;;;;;;;;27.75;25.00;;;;;-142.59;100.00;56100.38;5091773;27;49842;-70
2022/04/14 05:35:45;;;;;;;;;23.25;22.00;;;;;-142.59;100.00;56100.38;5091468;27;50626;-70
2022/04/14 05:38:11;;;;;;;;;24.00;22.00;;;;;-142.59;100.00;56100.38;5091633;27;49934;-67
2022/04/14 05:40:41;;;;;;;;;28.50;27.00;;;;;-142.59;100.00;56100.38;5091642;27;49806;-69
2022/04/14 05:43:15;;;;;;;;;25.00;24.75;;;;;-142.59;100.00;56100.38;5091716;27;49686;-68
2022/04/14 05:45:44;;;;;;;;;26.75;25.25;;;;;-142.59;100.00;56100.38;5091073;27;49691;-69
2022/04/14 05:48:16;;;;;;;;;26.75;25.50;;;;;-142.59;100.00;56100.38;5091260;27;49751;-69
2022/04/14 05:50:42;;;;;;;;;29.25;26.50;;;;;-142.59;100.00;56100.38;5091473;27;49804;-68
2022/04/14 05:53:08;;;;;;;;;30.75;28.00;;;;;-142.59;100.00;56100.38;5091628;27;49685;-69
2022/04/14 05:55:33;;;;;;;;;32.75;31.75;;;;;-142.59;100.00;56100.38;5091437;27;50408;-69
2022/04/14 05:57:58;;;;;;;;;30.25;28.00;;;;;-142.59;100.00;56100.38;5091179;27;49886;-70
2022/04/14 06:00:24;;;;;;;;;30.75;27.00;;;;;-142.59;100.00;56100.38;5091322;27;49875;-72
2022/04/14 06:02:49;;;;;;;;;37.00;31.25;;;;;-142.59;100.00;56100.38;5094810;27;49945;-66
2022/04/14 06:05:14;;;;;;;;;35.75;30.25;;;;;-142.59;100.00;56100.38;5094786;27;55367;-68
2022/04/14 06:07:40;;;;;;;;;34.25;33.50;;;;;-142.59;100.00;56100.38;5110622;27;49696;-66
2022/04/14 06:10:05;;;;;;;;;44.25;37.25;;;;;-142.59;100.00;56100.38;5112112;27;49824;-70
2022/04/14 06:12:31;;;;;;;;;38.50;35.25;;;;;-142.59;100.00;56100.38;5111635;27;49809;-70
2022/04/14 06:14:56;;;;;;;;;39.50;35.00;;;;;-142.59;100.00;56100.38;5110730;27;50001;-69
2022/04/14 06:17:21;;;;;;;;;45.50;37.00;;;;;-142.59;100.00;56100.38;5111213;27;49879;-68
2022/04/14 06:19:47;;;;;;;;;42.75;37.25;;;;;-142.59;100.00;56100.38;5110789;27;50132;-67
2022/04/14 06:22:12;;;;;;;;;38.25;35.75;;;;;-142.59;100.00;56100.38;5110968;27;49920;-68
2022/04/14 06:24:37;;;;;;;;;41.50;36.50;;;;;-142.59;100.00;56100.38;5110450;27;49716;-68
2022/04/14 06:27:03;;;;;;;;;31.50;27.25;;;;;-142.59;100.00;56100.38;5110522;27;49740;-71
2022/04/14 06:29:29;;;;;;;;;40.25;35.00;;;;;-142.59;100.00;56100.38;5110376;27;49809;-70
2022/04/14 06:31:54;;;;;;;;;39.50;35.75;;;;;-142.59;100.00;56100.38;5110797;27;49843;-69
2022/04/14 06:34:19;;;;;;;;;36.25;32.00;;;;;-142.59;100.00;56100.38;5112766;27;50447;-69
2022/04/14 06:36:45;;;;;;;;;33.75;32.00;;;;;-142.59;100.00;56100.38;5114091;27;49633;-70
2022/04/14 06:39:12;;;;;;;;;34.00;30.75;;;;;-142.59;100.00;56100.38;5114118;27;49931;-69
2022/04/14 06:41:39;;;;;;;;;33.25;31.25;;;;;-142.59;100.00;56100.38;5114120;27;49876;-68
2022/04/14 06:44:05;;;;;;;;;29.50;28.25;;;;;-142.59;100.00;56100.38;5113422;27;50227;-71
2022/04/14 06:46:31;;;;;;;;;36.75;32.50;;;;;-142.59;100.00;56100.38;5113780;27;49867;-72
2022/04/14 06:48:57;;;;;;;;;36.25;32.75;;;;;-142.59;100.00;56100.38;5113984;27;49962;-72
2022/04/14 06:51:22;;;;;;;;;30.75;30.50;;;;;-142.59;100.00;56100.38;5114134;27;49796;-70
2022/04/14 06:53:48;;;;;;;;;38.00;33.75;;;;;-142.59;100.00;56100.38;5113735;27;51072;-72
2022/04/14 06:56:14;;;;;;;;;34.25;32.25;;;;;-142.59;100.00;56100.38;5113716;27;49833;-72
2022/04/14 06:58:40;;;;;;;;;34.50;31.75;;;;;-142.59;100.00;56100.38;5113632;27;49825;-72
2022/04/14 07:01:05;;;;;;;;;28.50;27.25;;;;;-142.59;100.00;56100.38;5099356;27;49619;-72
2022/04/14 07:03:31;;;;;;;;;30.50;30.50;;;;;-142.59;100.00;56100.38;5093682;27;50838;-72
2022/04/14 07:05:56;;;;;;;;;26.50;25.50;;;;;-142.59;100.00;56100.38;5093855;27;49812;-73
2022/04/14 07:08:24;;;;;;;;;32.25;31.75;;;;;-142.59;100.00;56100.38;5093968;27;49775;-72
2022/04/14 07:10:50;;;;;;;;;23.25;21.50;;;;;-142.59;100.00;56100.38;5100813;27;49776;-72
2022/04/14 07:13:16;;;;;;;;;35.00;32.00;;;;;-142.59;100.00;56100.38;5113736;27;50415;-72
2022/04/14 07:15:41;;;;;;;;;40.25;35.00;;;;;-142.59;100.00;56100.38;5113311;27;49985;-73
2022/04/14 07:18:06;;;;;;;;;33.50;30.50;;;;;-142.59;100.00;56100.38;5113341;27;49811;-73
2022/04/14 07:20:32;;;;;;;;;38.75;36.75;;;;;-142.59;100.00;56100.38;5113473;27;49829;-72
2022/04/14 07:22:59;;;;;;;;;31.25;29.50;;;;;-142.59;100.00;56100.38;5101556;27;50293;-69
2022/04/14 07:25:25;;;;;;;;;29.25;28.25;;;;;-142.59;100.00;56100.38;5093739;27;49770;-69
2022/04/14 07:27:50;;;;;;;;;36.00;34.50;;;;;-142.59;100.00;56100.38;5093860;27;49779;-71
2022/04/14 07:30:18;;;;;;;;;41.50;37.00;;;;;-142.59;100.00;56100.38;5093624;27;49869;-69
2022/04/14 07:32:45;;;;;;;;;32.75;29.25;;;;;-142.59;100.00;56100.38;5109513;27;50542;-70
2022/04/14 07:35:12;;;;;;;;;36.50;34.25;;;;;-142.59;100.00;56100.38;5113021;27;49764;-70
2022/04/14 07:37:37;;;;;;;;;37.75;33.25;;;;;-142.59;100.00;56100.38;5113240;27;49790;-71
2022/04/14 07:40:05;;;;;;;;;39.00;35.25;;;;;-142.59;100.00;56100.38;5113326;27;49616;-71
2022/04/14 07:42:35;;;;;;;;;41.75;35.50;;;;;-142.59;100.00;56100.38;5101981;27;49964;-69
2022/04/14 07:45:00;;;;;;;;;37.75;35.00;;;;;-142.59;100.00;56100.38;5096270;27;49735;-71
2022/04/14 07:47:25;;;;;;;;;43.25;36.50;;;;;-142.59;100.00;56100.38;5103748;27;49700;-70
2022/04/14 07:49:51;;;;;;;;;39.50;36.00;;;;;-142.59;100.00;56100.38;5099820;27;49864;-70
2022/04/14 07:52:16;;;;;;;;;38.50;35.50;;;;;-142.59;100.00;56100.38;5093915;27;50856;-70
2022/04/14 07:54:42;;;;;;;;;42.25;36.50;;;;;-142.59;100.00;56100.38;5106014;27;49713;-69
2022/04/14 07:57:07;;;;;;;;;48.00;40.25;;;;;-142.59;100.00;56100.38;5109098;27;50198;-69
2022/04/14 07:59:32;;;;;;;;;44.75;38.00;;;;;-142.59;100.00;56100.38;5098688;27;49966;-70
2022/04/14 08:02:00;;;;;;;;;45.25;36.25;;;;;-142.59;100.00;56100.38;5101986;27;54365;-70
2022/04/14 08:04:26;;;;;;;;;45.25;38.50;;;;;-142.59;100.00;56100.38;5097338;27;49923;-68
2022/04/14 08:06:52;;;;;;;;;33.50;32.00;;;;;-142.59;100.00;56100.38;5102465;27;50205;-71
2022/04/14 08:09:17;;;;;;;;;44.25;38.00;;;;;-142.59;100.00;56100.38;5112969;27;49644;-72
2022/04/14 08:11:43;;;;;;;;;41.75;37.00;;;;;-142.59;100.00;56100.38;5105233;27;50515;-72
2022/04/14 08:14:08;;;;;;;;;42.25;35.75;;;;;-142.59;100.00;56100.38;5112503;27;49625;-72
2022/04/14 08:16:33;;;;;;;;;46.75;39.00;;;;;-142.59;100.00;56100.38;5112489;27;49655;-72
2022/04/14 08:18:59;;;;;;;;;41.50;35.75;;;;;-142.59;100.00;56100.38;5099126;27;49533;-72
2022/04/14 08:21:24;;;;;;;;;35.75;32.00;;;;;-142.59;100.00;56100.38;5091338;27;49738;-73
2022/04/14 08:23:53;;;;;;;;;36.25;33.00;;;;;-142.59;100.00;56100.38;5092165;27;49671;-72
2022/04/14 08:26:19;;;;;;;;;33.25;30.25;;;;;-142.59;100.00;56100.38;5092663;27;50194;-72
2022/04/14 08:28:46;;;;;;;;;32.25;31.75;;;;;-142.59;100.00;56100.38;5094684;27;49865;-72
2022/04/14 08:31:12;;;;;;;;;29.75;29.00;;;;;-142.59;100.00;56100.38;5093519;27;50573;-73
2022/04/14 08:33:38;;;;;;;;;27.75;27.25;;;;;-142.59;100.00;56100.38;5092460;27;49663;-72
2022/04/14 08:36:07;;;;;;;;;31.50;31.25;;;;;-142.59;100.00;56100.38;5092632;27;49837;-72
2022/04/14 08:38:33;;;;;;;;;34.00;31.50;;;;;-142.59;100.00;56100.38;5092811;27;49831;-73
2022/04/14 08:41:03;;;;;;;;;29.75;27.75;;;;;-142.59;100.00;56100.38;5092323;27;50594;-73
2022/04/14 08:43:34;;;;;;;;;30.75;29.50;;;;;-142.59;100.00;56100.38;5092357;27;49757;-72
2022/04/14 08:46:03;;;;;;;;;26.25;24.50;;;;;-142.59;100.00;56100.38;5092014;27;49611;-72
2022/04/14 08:48:30;;;;;;;;;28.25;27.75;;;;;-142.59;100.00;56100.38;5092409;27;49655;-70
2022/04/14 08:50:56;;;;;;;;;25.25;24.00;;;;;-142.59;100.00;56100.38;5092057;27;50527;-72
2022/04/14 08:53:26;;;;;;;;;32.00;31.25;;;;;-142.59;100.00;56100.38;5092089;27;49652;-72
2022/04/14 08:55:52;;;;;;;;;32.00;27.75;;;;;-142.59;100.00;56100.38;5092024;27;50009;-71
2022/04/14 08:58:19;;;;;;;;;28.25;25.50;;;;;-142.59;100.00;56100.38;5092223;27;50036;-71
2022/04/14 09:00:45;;;;;;;;;25.00;24.00;;;;;-142.59;100.00;56100.38;5091702;27;51738;-73
2022/04/14 09:03:15;;;;;;;;;28.50;27.25;;;;;-142.59;100.00;56100.38;5091162;27;49875;-72
2022/04/14 09:05:42;;;;;;;;;28.50;27.00;;;;;-142.59;100.00;56100.38;5092109;27;49649;-72
2022/04/14 09:08:07;;;;;;;;;37.00;29.25;;;;;-142.59;100.00;56100.38;5092200;27;49906;-71
2022/04/14 09:10:35;;;;;;;;;27.25;21.75;;;;;-142.59;100.00;56100.38;5090455;27;50492;-71
2022/04/14 09:13:01;;;;;;;;;30.50;28.25;;;;;-142.59;100.00;56100.38;5091903;27;49750;-72
2022/04/14 09:15:27;;;;;;;;;29.25;27.75;;;;;-142.59;100.00;56100.38;5091918;27;50104;-74
2022/04/14 09:17:53;;;;;;;;;33.25;31.75;;;;;-142.59;100.00;56100.38;5091968;27;49872;-73
2022/04/14 09:20:37;;;;;;;;;29.50;25.75;;;;;-142.59;100.00;56100.38;5091883;27;50920;-72
2022/04/14 09:23:25;;;;;;;;;26.25;26.25;;;;;-142.59;100.00;56100.38;5091592;27;49975;-71
2022/04/14 09:26:06;;;;;;;;;21.75;18.75;;;;;-142.59;100.00;56100.38;5091729;27;49617;-72
2022/04/14 09:28:32;;;;;;;;;17.75;17.75;;;;;-142.59;100.00;56100.38;5092034;27;49828;-72
2022/04/14 09:30:59;;;;;;;;;16.25;14.00;;;;;-142.59;100.00;56100.38;5091415;27;50578;-72
2022/04/14 09:33:25;;;;;;;;;16.25;15.50;;;;;-142.59;100.00;56100.38;5093709;27;49827;-72
2022/04/14 09:36:08;;;;;;;;;17.75;17.25;;;;;-142.59;100.00;56100.38;5091447;27;49904;-73
2022/04/14 09:38:51;;;;;;;;;19.75;15.75;;;;;-142.59;100.00;56100.38;5091901;27;49702;-74
2022/04/14 09:41:38;;;;;;;;;15.25;14.75;;;;;-142.59;100.00;56100.38;5111189;27;50715;-73
2022/04/14 09:44:08;;;;;;;;;19.25;16.50;;;;;-142.59;100.00;56100.38;5110952;27;50119;-72
2022/04/14 09:46:34;;;;;;;;;18.75;15.00;;;;;-142.59;100.00;56100.38;5111226;27;49578;-72
2022/04/14 09:49:09;;;;;;;;;23.00;19.25;;;;;-142.59;100.00;56100.38;5111579;27;49872;-73
2022/04/14 09:51:37;;;;;;;;;12.00;11.25;;;;;-142.59;100.00;56100.38;5111231;27;50629;-73
2022/04/14 09:54:06;;;;;;;;;22.75;19.25;;;;;-142.59;100.00;56100.38;5111065;27;49878;-73
2022/04/14 09:56:45;;;;;;;;;20.50;19.25;;;;;-142.59;100.00;56100.38;5110930;27;49611;-73
2022/04/14 09:59:13;;;;;;;;;17.50;15.50;;;;;-142.59;100.00;56100.38;5110951;27;49770;-73
2022/04/14 10:01:38;;;;;;;;;13.25;13.25;;;;;-142.59;100.00;56100.38;5110818;27;50503;-72
2022/04/14 10:04:05;;;;;;;;;18.25;16.75;;;;;-142.59;100.00;56100.38;5110860;27;49824;-72
2022/04/14 10:06:31;;;;;;;;;22.50;21.25;;;;;-142.59;100.00;56100.38;5110963;27;49775;-70
2022/04/14 10:08:57;;;;;;;;;21.00;18.00;;;;;-142.59;100.00;56100.38;5112871;27;49718;-73
2022/04/14 10:11:26;;;;;;;;;12.00;12.00;;;;;-142.59;100.00;56100.38;5114550;27;50246;-73
2022/04/14 10:13:51;;;;;;;;;11.50;7.25;;;;;-142.59;100.00;56100.38;5113392;27;49918;-73
2022/04/14 10:16:21;;;;;;;;;19.00;14.00;;;;;-142.59;100.00;56100.38;5113158;27;49827;-72
2022/04/14 10:18:48;;;;;;;;;15.25;13.00;;;;;-142.59;100.00;56100.38;5114617;27;49547;-72
2022/04/14 10:21:14;;;;;;;;;21.00;17.75;;;;;-142.59;100.00;56100.38;5114018;27;50535;-73
2022/04/14 10:23:40;;;;;;;;;13.75;13.25;;;;;-142.59;100.00;56100.38;5114128;27;49808;-73
2022/04/14 10:26:07;;;;;;;;;14.75;14.75;;;;;-142.59;100.00;56100.38;5114591;27;49821;-72
2022/04/14 10:28:35;;;;;;;;;15.00;15.00;;;;;-142.59;100.00;56100.38;5114439;27;49788;-73
2022/04/14 10:31:01;;;;;;;;;16.75;14.75;;;;;-142.59;100.00;56100.38;5114078;27;50533;-73
2022/04/14 10:33:28;;;;;;;;;14.75;13.50;;;;;-142.59;100.00;56100.38;5113106;27;49793;-73
2022/04/14 10:35:53;;;;;;;;;17.50;17.25;;;;;-142.59;100.00;56100.38;5111540;27;49766;-73
2022/04/14 10:38:34;;;;;;;;;16.50;16.00;;;;;-142.59;100.00;56100.38;5094530;27;50009;-74
2022/04/14 10:41:05;;;;;;;;;21.25;19.50;;;;;-142.59;100.00;56100.38;5094258;27;49896;-70
2022/04/14 10:43:37;;;;;;;;;19.00;19.00;;;;;-142.59;100.00;56100.38;5093998;27;49880;-72
2022/04/14 10:46:03;;;;;;;;;20.75;20.50;;;;;-142.59;100.00;56100.38;5094678;27;50017;-70
2022/04/14 10:48:32;;;;;;;;;19.75;15.75;;;;;-142.59;100.00;56100.38;5094643;27;49690;-71
2022/04/14 10:51:24;;;;;;;;;17.50;16.75;;;;;-142.59;100.00;56100.38;5094015;27;49774;-71